<?xml version="1.0" encoding="UTF-8"?>
<gpx version="1.1" creator="https://www.youtrack.es" xsi:schemaLocation="http://www.topografix.com/GPX/1/1 http://www.topografix.com/GPX/1/1/gpx.xsd http://www.garmin.com/xmlschemas/GpxExtensions/v3 http://www.garmin.com/xmlschemas/GpxExtensionsv3.xsd http://www.garmin.com/xmlschemas/TrackPointExtension/v1 http://www.garmin.com/xmlschemas/TrackPointExtensionv1.xsd" xmlns:gpxtpx="http://www.garmin.com/xmlschemas/TrackPointExtension/v1" xmlns:gpxx="http://www.garmin.com/xmlschemas/GpxExtensions/v3" xmlns:xsi="http://www.w3.org/2001/XMLSchema-instance">
  <metadata>
    <link href="https://www.youtrack.es">
      <text>YouTrack.es</text>
    </link>
    <time>2026-05-08T21:00:40Z</time>
  </metadata>
  <trk>
    <src>https://www.youtrack.es</src>
    <link href="https://www.youtrack.es/ruta/14476-collado-jermoso-cabana-veronica-fuente-de">
      <text>YouTrack.es</text>
    </link>
    <trkseg>
      <trkpt lat="43.143458" lon="-4.812093">
        <ele>1109.04</ele>
        <time>2017-03-17T11:34:16Z</time>
      </trkpt>
      <trkpt lat="43.143547" lon="-4.812133">
        <ele>1136.02</ele>
        <time>2017-03-17T11:36:01Z</time>
      </trkpt>
      <trkpt lat="43.143661" lon="-4.812186">
        <ele>1136.02</ele>
        <time>2017-03-17T11:36:05Z</time>
      </trkpt>
      <trkpt lat="43.143749" lon="-4.812225">
        <ele>1133.01</ele>
        <time>2017-03-17T11:36:13Z</time>
      </trkpt>
      <trkpt lat="43.143814" lon="-4.812336">
        <ele>1134.07</ele>
        <time>2017-03-17T11:36:22Z</time>
      </trkpt>
      <trkpt lat="43.143906" lon="-4.812405">
        <ele>1139.06</ele>
        <time>2017-03-17T11:36:33Z</time>
      </trkpt>
      <trkpt lat="43.143961" lon="-4.812539">
        <ele>1142.05</ele>
        <time>2017-03-17T11:36:40Z</time>
      </trkpt>
      <trkpt lat="43.144050" lon="-4.812638">
        <ele>1144.05</ele>
        <time>2017-03-17T11:36:44Z</time>
      </trkpt>
      <trkpt lat="43.144124" lon="-4.812772">
        <ele>1145.08</ele>
        <time>2017-03-17T11:36:47Z</time>
      </trkpt>
      <trkpt lat="43.144217" lon="-4.812793">
        <ele>1142.05</ele>
        <time>2017-03-17T11:36:52Z</time>
      </trkpt>
      <trkpt lat="43.144305" lon="-4.812892">
        <ele>1143.07</ele>
        <time>2017-03-17T11:36:59Z</time>
      </trkpt>
      <trkpt lat="43.144383" lon="-4.812819">
        <ele>1137.05</ele>
        <time>2017-03-17T11:37:08Z</time>
      </trkpt>
      <trkpt lat="43.144501" lon="-4.812693">
        <ele>1134.06</ele>
        <time>2017-03-17T11:37:13Z</time>
      </trkpt>
      <trkpt lat="43.144597" lon="-4.812672">
        <ele>1126.01</ele>
        <time>2017-03-17T11:37:35Z</time>
      </trkpt>
      <trkpt lat="43.144701" lon="-4.812733">
        <ele>1129.02</ele>
        <time>2017-03-17T11:37:39Z</time>
      </trkpt>
      <trkpt lat="43.144783" lon="-4.812793">
        <ele>1132.01</ele>
        <time>2017-03-17T11:37:44Z</time>
      </trkpt>
      <trkpt lat="43.144826" lon="-4.812905">
        <ele>1125.10</ele>
        <time>2017-03-17T11:38:13Z</time>
      </trkpt>
      <trkpt lat="43.144879" lon="-4.813005">
        <ele>1130.07</ele>
        <time>2017-03-17T11:38:17Z</time>
      </trkpt>
      <trkpt lat="43.144929" lon="-4.813112">
        <ele>1134.04</ele>
        <time>2017-03-17T11:38:24Z</time>
      </trkpt>
      <trkpt lat="43.144989" lon="-4.813208">
        <ele>1131.08</ele>
        <time>2017-03-17T11:38:34Z</time>
      </trkpt>
      <trkpt lat="43.145057" lon="-4.813385">
        <ele>1140.05</ele>
        <time>2017-03-17T11:39:22Z</time>
      </trkpt>
      <trkpt lat="43.145130" lon="-4.813459">
        <ele>1135.09</ele>
        <time>2017-03-17T11:39:30Z</time>
      </trkpt>
      <trkpt lat="43.145160" lon="-4.813591">
        <ele>1136.01</ele>
        <time>2017-03-17T11:39:37Z</time>
      </trkpt>
      <trkpt lat="43.145229" lon="-4.813676">
        <ele>1136.08</ele>
        <time>2017-03-17T11:39:44Z</time>
      </trkpt>
      <trkpt lat="43.145225" lon="-4.813802">
        <ele>1137.03</ele>
        <time>2017-03-17T11:39:50Z</time>
      </trkpt>
      <trkpt lat="43.145308" lon="-4.813890">
        <ele>1139.03</ele>
        <time>2017-03-17T11:40:01Z</time>
      </trkpt>
      <trkpt lat="43.145397" lon="-4.813989">
        <ele>1141.01</ele>
        <time>2017-03-17T11:40:11Z</time>
      </trkpt>
      <trkpt lat="43.145460" lon="-4.814080">
        <ele>1141.01</ele>
        <time>2017-03-17T11:40:19Z</time>
      </trkpt>
      <trkpt lat="43.145533" lon="-4.814151">
        <ele>1143.03</ele>
        <time>2017-03-17T11:40:33Z</time>
      </trkpt>
      <trkpt lat="43.145623" lon="-4.814194">
        <ele>1142.09</ele>
        <time>2017-03-17T11:40:40Z</time>
      </trkpt>
      <trkpt lat="43.145681" lon="-4.814301">
        <ele>1145.04</ele>
        <time>2017-03-17T11:40:49Z</time>
      </trkpt>
      <trkpt lat="43.145750" lon="-4.814382">
        <ele>1150.05</ele>
        <time>2017-03-17T11:41:00Z</time>
      </trkpt>
      <trkpt lat="43.145834" lon="-4.814430">
        <ele>1149.06</ele>
        <time>2017-03-17T11:41:08Z</time>
      </trkpt>
      <trkpt lat="43.145920" lon="-4.814478">
        <ele>1148.04</ele>
        <time>2017-03-17T11:41:16Z</time>
      </trkpt>
      <trkpt lat="43.146007" lon="-4.814547">
        <ele>1152.08</ele>
        <time>2017-03-17T11:41:26Z</time>
      </trkpt>
      <trkpt lat="43.146096" lon="-4.814581">
        <ele>1150.05</ele>
        <time>2017-03-17T11:41:33Z</time>
      </trkpt>
      <trkpt lat="43.146178" lon="-4.814632">
        <ele>1153.03</ele>
        <time>2017-03-17T11:41:42Z</time>
      </trkpt>
      <trkpt lat="43.146266" lon="-4.814697">
        <ele>1159.02</ele>
        <time>2017-03-17T11:41:52Z</time>
      </trkpt>
      <trkpt lat="43.146315" lon="-4.814804">
        <ele>1158.02</ele>
        <time>2017-03-17T11:42:03Z</time>
      </trkpt>
      <trkpt lat="43.146364" lon="-4.814934">
        <ele>1158.01</ele>
        <time>2017-03-17T11:42:20Z</time>
      </trkpt>
      <trkpt lat="43.146427" lon="-4.815029">
        <ele>1158.02</ele>
        <time>2017-03-17T11:42:28Z</time>
      </trkpt>
      <trkpt lat="43.146465" lon="-4.815157">
        <ele>1163.07</ele>
        <time>2017-03-17T11:42:37Z</time>
      </trkpt>
      <trkpt lat="43.146548" lon="-4.815215">
        <ele>1164.03</ele>
        <time>2017-03-17T11:42:48Z</time>
      </trkpt>
      <trkpt lat="43.146643" lon="-4.815210">
        <ele>1164.06</ele>
        <time>2017-03-17T11:42:55Z</time>
      </trkpt>
      <trkpt lat="43.146733" lon="-4.815158">
        <ele>1166.04</ele>
        <time>2017-03-17T11:43:02Z</time>
      </trkpt>
      <trkpt lat="43.146824" lon="-4.815179">
        <ele>1168.06</ele>
        <time>2017-03-17T11:43:12Z</time>
      </trkpt>
      <trkpt lat="43.146899" lon="-4.815270">
        <ele>1168.03</ele>
        <time>2017-03-17T11:43:21Z</time>
      </trkpt>
      <trkpt lat="43.146980" lon="-4.815338">
        <ele>1169.03</ele>
        <time>2017-03-17T11:43:29Z</time>
      </trkpt>
      <trkpt lat="43.147069" lon="-4.815385">
        <ele>1171.09</ele>
        <time>2017-03-17T11:43:39Z</time>
      </trkpt>
      <trkpt lat="43.147143" lon="-4.815467">
        <ele>1176.01</ele>
        <time>2017-03-17T11:43:49Z</time>
      </trkpt>
      <trkpt lat="43.147226" lon="-4.815525">
        <ele>1172.03</ele>
        <time>2017-03-17T11:44:04Z</time>
      </trkpt>
      <trkpt lat="43.147274" lon="-4.815644">
        <ele>1175.01</ele>
        <time>2017-03-17T11:44:15Z</time>
      </trkpt>
      <trkpt lat="43.147339" lon="-4.815741">
        <ele>1181.03</ele>
        <time>2017-03-17T11:44:29Z</time>
      </trkpt>
      <trkpt lat="43.147405" lon="-4.815832">
        <ele>1179.04</ele>
        <time>2017-03-17T11:44:45Z</time>
      </trkpt>
      <trkpt lat="43.147475" lon="-4.815938">
        <ele>1184.05</ele>
        <time>2017-03-17T11:44:54Z</time>
      </trkpt>
      <trkpt lat="43.147485" lon="-4.816072">
        <ele>1184.05</ele>
        <time>2017-03-17T11:45:02Z</time>
      </trkpt>
      <trkpt lat="43.147455" lon="-4.816189">
        <ele>1191.04</ele>
        <time>2017-03-17T11:45:16Z</time>
      </trkpt>
      <trkpt lat="43.147382" lon="-4.816265">
        <ele>1190.09</ele>
        <time>2017-03-17T11:45:29Z</time>
      </trkpt>
      <trkpt lat="43.147309" lon="-4.816341">
        <ele>1194.04</ele>
        <time>2017-03-17T11:45:45Z</time>
      </trkpt>
      <trkpt lat="43.147261" lon="-4.816445">
        <ele>1196.08</ele>
        <time>2017-03-17T11:45:53Z</time>
      </trkpt>
      <trkpt lat="43.147151" lon="-4.816438">
        <ele>1196.06</ele>
        <time>2017-03-17T11:45:58Z</time>
      </trkpt>
      <trkpt lat="43.147192" lon="-4.816559">
        <ele>1196.01</ele>
        <time>2017-03-17T11:46:08Z</time>
      </trkpt>
      <trkpt lat="43.147270" lon="-4.816622">
        <ele>1200.02</ele>
        <time>2017-03-17T11:46:17Z</time>
      </trkpt>
      <trkpt lat="43.147372" lon="-4.816675">
        <ele>1199.01</ele>
        <time>2017-03-17T11:46:26Z</time>
      </trkpt>
      <trkpt lat="43.147454" lon="-4.816754">
        <ele>1205.02</ele>
        <time>2017-03-17T11:46:41Z</time>
      </trkpt>
      <trkpt lat="43.147548" lon="-4.816776">
        <ele>1211.06</ele>
        <time>2017-03-17T11:46:54Z</time>
      </trkpt>
      <trkpt lat="43.147649" lon="-4.816792">
        <ele>1212.04</ele>
        <time>2017-03-17T11:47:06Z</time>
      </trkpt>
      <trkpt lat="43.147741" lon="-4.816773">
        <ele>1213.04</ele>
        <time>2017-03-17T11:47:14Z</time>
      </trkpt>
      <trkpt lat="43.147846" lon="-4.816787">
        <ele>1218.03</ele>
        <time>2017-03-17T11:47:27Z</time>
      </trkpt>
      <trkpt lat="43.147932" lon="-4.816862">
        <ele>1218.08</ele>
        <time>2017-03-17T11:47:33Z</time>
      </trkpt>
      <trkpt lat="43.148022" lon="-4.816891">
        <ele>1221.08</ele>
        <time>2017-03-17T11:47:41Z</time>
      </trkpt>
      <trkpt lat="43.148088" lon="-4.816980">
        <ele>1219.06</ele>
        <time>2017-03-17T11:47:50Z</time>
      </trkpt>
      <trkpt lat="43.148178" lon="-4.816969">
        <ele>1222.01</ele>
        <time>2017-03-17T11:48:04Z</time>
      </trkpt>
      <trkpt lat="43.148276" lon="-4.816960">
        <ele>1221.04</ele>
        <time>2017-03-17T11:48:12Z</time>
      </trkpt>
      <trkpt lat="43.148392" lon="-4.816965">
        <ele>1225.01</ele>
        <time>2017-03-17T11:48:22Z</time>
      </trkpt>
      <trkpt lat="43.148468" lon="-4.816889">
        <ele>1223.01</ele>
        <time>2017-03-17T11:48:35Z</time>
      </trkpt>
      <trkpt lat="43.148552" lon="-4.816834">
        <ele>1229.09</ele>
        <time>2017-03-17T11:48:43Z</time>
      </trkpt>
      <trkpt lat="43.148637" lon="-4.816790">
        <ele>1230.07</ele>
        <time>2017-03-17T11:48:51Z</time>
      </trkpt>
      <trkpt lat="43.148741" lon="-4.816771">
        <ele>1232.07</ele>
        <time>2017-03-17T11:48:59Z</time>
      </trkpt>
      <trkpt lat="43.148839" lon="-4.816752">
        <ele>1234.02</ele>
        <time>2017-03-17T11:49:05Z</time>
      </trkpt>
      <trkpt lat="43.148939" lon="-4.816692">
        <ele>1237.04</ele>
        <time>2017-03-17T11:49:14Z</time>
      </trkpt>
      <trkpt lat="43.149037" lon="-4.816666">
        <ele>1241.06</ele>
        <time>2017-03-17T11:49:22Z</time>
      </trkpt>
      <trkpt lat="43.149133" lon="-4.816650">
        <ele>1244.03</ele>
        <time>2017-03-17T11:49:37Z</time>
      </trkpt>
      <trkpt lat="43.149216" lon="-4.816591">
        <ele>1244.01</ele>
        <time>2017-03-17T11:49:53Z</time>
      </trkpt>
      <trkpt lat="43.149300" lon="-4.816546">
        <ele>1246.05</ele>
        <time>2017-03-17T11:50:01Z</time>
      </trkpt>
      <trkpt lat="43.149351" lon="-4.816430">
        <ele>1253.00</ele>
        <time>2017-03-17T11:50:10Z</time>
      </trkpt>
      <trkpt lat="43.149401" lon="-4.816310">
        <ele>1251.01</ele>
        <time>2017-03-17T11:50:23Z</time>
      </trkpt>
      <trkpt lat="43.149472" lon="-4.816231">
        <ele>1251.01</ele>
        <time>2017-03-17T11:50:32Z</time>
      </trkpt>
      <trkpt lat="43.149540" lon="-4.816121">
        <ele>1254.09</ele>
        <time>2017-03-17T11:50:41Z</time>
      </trkpt>
      <trkpt lat="43.149608" lon="-4.816027">
        <ele>1252.05</ele>
        <time>2017-03-17T11:50:54Z</time>
      </trkpt>
      <trkpt lat="43.149664" lon="-4.815930">
        <ele>1256.01</ele>
        <time>2017-03-17T11:51:04Z</time>
      </trkpt>
      <trkpt lat="43.149727" lon="-4.815835">
        <ele>1257.07</ele>
        <time>2017-03-17T11:51:15Z</time>
      </trkpt>
      <trkpt lat="43.149684" lon="-4.815686">
        <ele>1258.08</ele>
        <time>2017-03-17T11:54:16Z</time>
      </trkpt>
      <trkpt lat="43.149721" lon="-4.815556">
        <ele>1255.05</ele>
        <time>2017-03-17T11:54:19Z</time>
      </trkpt>
      <trkpt lat="43.149986" lon="-4.815414">
        <ele>1251.09</ele>
        <time>2017-03-17T11:54:20Z</time>
      </trkpt>
      <trkpt lat="43.150032" lon="-4.815229">
        <ele>1250.09</ele>
        <time>2017-03-17T11:54:23Z</time>
      </trkpt>
      <trkpt lat="43.150033" lon="-4.815093">
        <ele>1255.08</ele>
        <time>2017-03-17T11:54:29Z</time>
      </trkpt>
      <trkpt lat="43.150116" lon="-4.815028">
        <ele>1255.09</ele>
        <time>2017-03-17T11:54:33Z</time>
      </trkpt>
      <trkpt lat="43.150179" lon="-4.814918">
        <ele>1256.02</ele>
        <time>2017-03-17T11:54:37Z</time>
      </trkpt>
      <trkpt lat="43.150255" lon="-4.814841">
        <ele>1254.01</ele>
        <time>2017-03-17T11:54:41Z</time>
      </trkpt>
      <trkpt lat="43.150353" lon="-4.814824">
        <ele>1255.07</ele>
        <time>2017-03-17T11:54:46Z</time>
      </trkpt>
      <trkpt lat="43.150438" lon="-4.814778">
        <ele>1252.07</ele>
        <time>2017-03-17T11:54:59Z</time>
      </trkpt>
      <trkpt lat="43.150531" lon="-4.814656">
        <ele>1251.06</ele>
        <time>2017-03-17T11:56:10Z</time>
      </trkpt>
      <trkpt lat="43.150574" lon="-4.814538">
        <ele>1253.07</ele>
        <time>2017-03-17T11:56:14Z</time>
      </trkpt>
      <trkpt lat="43.150657" lon="-4.814438">
        <ele>1252.07</ele>
        <time>2017-03-17T11:56:17Z</time>
      </trkpt>
      <trkpt lat="43.150739" lon="-4.814326">
        <ele>1253.07</ele>
        <time>2017-03-17T11:56:19Z</time>
      </trkpt>
      <trkpt lat="43.150638" lon="-4.814314">
        <ele>1253.07</ele>
        <time>2017-03-17T11:56:21Z</time>
      </trkpt>
      <trkpt lat="43.150727" lon="-4.814245">
        <ele>1252.05</ele>
        <time>2017-03-17T11:56:23Z</time>
      </trkpt>
      <trkpt lat="43.150860" lon="-4.814242">
        <ele>1252.05</ele>
        <time>2017-03-17T11:56:25Z</time>
      </trkpt>
      <trkpt lat="43.150916" lon="-4.814145">
        <ele>1256.05</ele>
        <time>2017-03-17T11:58:43Z</time>
      </trkpt>
      <trkpt lat="43.151012" lon="-4.813991">
        <ele>1247.01</ele>
        <time>2017-03-17T12:01:06Z</time>
      </trkpt>
      <trkpt lat="43.151056" lon="-4.813858">
        <ele>1240.01</ele>
        <time>2017-03-17T12:01:13Z</time>
      </trkpt>
      <trkpt lat="43.151140" lon="-4.813789">
        <ele>1241.08</ele>
        <time>2017-03-17T12:01:20Z</time>
      </trkpt>
      <trkpt lat="43.151205" lon="-4.813696">
        <ele>1244.07</ele>
        <time>2017-03-17T12:01:25Z</time>
      </trkpt>
      <trkpt lat="43.151284" lon="-4.813624">
        <ele>1247.02</ele>
        <time>2017-03-17T12:01:29Z</time>
      </trkpt>
      <trkpt lat="43.151373" lon="-4.813558">
        <ele>1249.03</ele>
        <time>2017-03-17T12:01:35Z</time>
      </trkpt>
      <trkpt lat="43.151401" lon="-4.813436">
        <ele>1257.03</ele>
        <time>2017-03-17T12:01:44Z</time>
      </trkpt>
      <trkpt lat="43.151435" lon="-4.813300">
        <ele>1260.07</ele>
        <time>2017-03-17T12:03:32Z</time>
      </trkpt>
      <trkpt lat="43.151456" lon="-4.813172">
        <ele>1258.03</ele>
        <time>2017-03-17T12:03:37Z</time>
      </trkpt>
      <trkpt lat="43.151507" lon="-4.813037">
        <ele>1257.07</ele>
        <time>2017-03-17T12:03:42Z</time>
      </trkpt>
      <trkpt lat="43.151531" lon="-4.812896">
        <ele>1258.09</ele>
        <time>2017-03-17T12:03:46Z</time>
      </trkpt>
      <trkpt lat="43.151621" lon="-4.812748">
        <ele>1257.06</ele>
        <time>2017-03-17T12:03:50Z</time>
      </trkpt>
      <trkpt lat="43.151588" lon="-4.812617">
        <ele>1260.03</ele>
        <time>2017-03-17T12:03:54Z</time>
      </trkpt>
      <trkpt lat="43.151514" lon="-4.812487">
        <ele>1262.01</ele>
        <time>2017-03-17T12:03:57Z</time>
      </trkpt>
      <trkpt lat="43.151398" lon="-4.812381">
        <ele>1266.05</ele>
        <time>2017-03-17T12:04:00Z</time>
      </trkpt>
      <trkpt lat="43.151449" lon="-4.812274">
        <ele>1268.06</ele>
        <time>2017-03-17T12:04:05Z</time>
      </trkpt>
      <trkpt lat="43.151536" lon="-4.812193">
        <ele>1275.06</ele>
        <time>2017-03-17T12:04:10Z</time>
      </trkpt>
      <trkpt lat="43.151577" lon="-4.812068">
        <ele>1287.04</ele>
        <time>2017-03-17T12:04:20Z</time>
      </trkpt>
      <trkpt lat="43.151407" lon="-4.812087">
        <ele>1291.05</ele>
        <time>2017-03-17T12:04:23Z</time>
      </trkpt>
      <trkpt lat="43.151472" lon="-4.811966">
        <ele>1298.04</ele>
        <time>2017-03-17T12:04:34Z</time>
      </trkpt>
      <trkpt lat="43.151500" lon="-4.811844">
        <ele>1309.09</ele>
        <time>2017-03-17T12:04:46Z</time>
      </trkpt>
      <trkpt lat="43.151375" lon="-4.811822">
        <ele>1312.06</ele>
        <time>2017-03-17T12:04:50Z</time>
      </trkpt>
      <trkpt lat="43.151440" lon="-4.811722">
        <ele>1319.04</ele>
        <time>2017-03-17T12:04:59Z</time>
      </trkpt>
      <trkpt lat="43.151371" lon="-4.811610">
        <ele>1332.05</ele>
        <time>2017-03-17T12:05:05Z</time>
      </trkpt>
      <trkpt lat="43.151459" lon="-4.811549">
        <ele>1339.01</ele>
        <time>2017-03-17T12:05:08Z</time>
      </trkpt>
      <trkpt lat="43.151371" lon="-4.811510">
        <ele>1350.01</ele>
        <time>2017-03-17T12:05:20Z</time>
      </trkpt>
      <trkpt lat="43.151337" lon="-4.811338">
        <ele>1364.04</ele>
        <time>2017-03-17T12:06:59Z</time>
      </trkpt>
      <trkpt lat="43.151294" lon="-4.811199">
        <ele>1363.07</ele>
        <time>2017-03-17T12:07:04Z</time>
      </trkpt>
      <trkpt lat="43.151244" lon="-4.811091">
        <ele>1366.03</ele>
        <time>2017-03-17T12:07:06Z</time>
      </trkpt>
      <trkpt lat="43.151224" lon="-4.810951">
        <ele>1373.02</ele>
        <time>2017-03-17T12:07:22Z</time>
      </trkpt>
      <trkpt lat="43.151164" lon="-4.810844">
        <ele>1375.07</ele>
        <time>2017-03-17T12:07:37Z</time>
      </trkpt>
      <trkpt lat="43.151146" lon="-4.810704">
        <ele>1377.05</ele>
        <time>2017-03-17T12:07:41Z</time>
      </trkpt>
      <trkpt lat="43.151080" lon="-4.810793">
        <ele>1379.06</ele>
        <time>2017-03-17T12:07:44Z</time>
      </trkpt>
      <trkpt lat="43.151134" lon="-4.810683">
        <ele>1375.01</ele>
        <time>2017-03-17T12:07:54Z</time>
      </trkpt>
      <trkpt lat="43.151150" lon="-4.810554">
        <ele>1375.08</ele>
        <time>2017-03-17T12:08:07Z</time>
      </trkpt>
      <trkpt lat="43.151196" lon="-4.810427">
        <ele>1378.06</ele>
        <time>2017-03-17T12:08:13Z</time>
      </trkpt>
      <trkpt lat="43.151291" lon="-4.810447">
        <ele>1380.03</ele>
        <time>2017-03-17T12:08:18Z</time>
      </trkpt>
      <trkpt lat="43.151232" lon="-4.810345">
        <ele>1385.01</ele>
        <time>2017-03-17T12:08:22Z</time>
      </trkpt>
      <trkpt lat="43.151139" lon="-4.810381">
        <ele>1387.07</ele>
        <time>2017-03-17T12:08:24Z</time>
      </trkpt>
      <trkpt lat="43.151082" lon="-4.810258">
        <ele>1390.06</ele>
        <time>2017-03-17T12:08:34Z</time>
      </trkpt>
      <trkpt lat="43.151084" lon="-4.810114">
        <ele>1392.02</ele>
        <time>2017-03-17T12:08:45Z</time>
      </trkpt>
      <trkpt lat="43.151100" lon="-4.809991">
        <ele>1397.05</ele>
        <time>2017-03-17T12:09:03Z</time>
      </trkpt>
      <trkpt lat="43.151185" lon="-4.809858">
        <ele>1395.08</ele>
        <time>2017-03-17T12:09:07Z</time>
      </trkpt>
      <trkpt lat="43.151073" lon="-4.809900">
        <ele>1399.03</ele>
        <time>2017-03-17T12:09:20Z</time>
      </trkpt>
      <trkpt lat="43.151061" lon="-4.809776">
        <ele>1403.06</ele>
        <time>2017-03-17T12:09:44Z</time>
      </trkpt>
      <trkpt lat="43.151009" lon="-4.809649">
        <ele>1401.09</ele>
        <time>2017-03-17T12:09:50Z</time>
      </trkpt>
      <trkpt lat="43.151093" lon="-4.809562">
        <ele>1402.07</ele>
        <time>2017-03-17T12:09:58Z</time>
      </trkpt>
      <trkpt lat="43.151010" lon="-4.809483">
        <ele>1399.03</ele>
        <time>2017-03-17T12:10:06Z</time>
      </trkpt>
      <trkpt lat="43.150973" lon="-4.809327">
        <ele>1400.02</ele>
        <time>2017-03-17T12:10:10Z</time>
      </trkpt>
      <trkpt lat="43.151062" lon="-4.809367">
        <ele>1399.01</ele>
        <time>2017-03-17T12:10:16Z</time>
      </trkpt>
      <trkpt lat="43.151118" lon="-4.809528">
        <ele>1396.08</ele>
        <time>2017-03-17T12:10:28Z</time>
      </trkpt>
      <trkpt lat="43.151215" lon="-4.809589">
        <ele>1394.09</ele>
        <time>2017-03-17T12:10:36Z</time>
      </trkpt>
      <trkpt lat="43.151290" lon="-4.809518">
        <ele>1387.01</ele>
        <time>2017-03-17T12:10:43Z</time>
      </trkpt>
      <trkpt lat="43.151369" lon="-4.809578">
        <ele>1390.07</ele>
        <time>2017-03-17T12:10:51Z</time>
      </trkpt>
      <trkpt lat="43.151444" lon="-4.809683">
        <ele>1393.05</ele>
        <time>2017-03-17T12:11:04Z</time>
      </trkpt>
      <trkpt lat="43.151494" lon="-4.809796">
        <ele>1393.02</ele>
        <time>2017-03-17T12:11:10Z</time>
      </trkpt>
      <trkpt lat="43.151593" lon="-4.809848">
        <ele>1392.10</ele>
        <time>2017-03-17T12:11:23Z</time>
      </trkpt>
      <trkpt lat="43.151684" lon="-4.809850">
        <ele>1388.05</ele>
        <time>2017-03-17T12:11:36Z</time>
      </trkpt>
      <trkpt lat="43.151755" lon="-4.809953">
        <ele>1388.01</ele>
        <time>2017-03-17T12:11:50Z</time>
      </trkpt>
      <trkpt lat="43.151825" lon="-4.810035">
        <ele>1391.04</ele>
        <time>2017-03-17T12:11:59Z</time>
      </trkpt>
      <trkpt lat="43.151877" lon="-4.810179">
        <ele>1397.01</ele>
        <time>2017-03-17T12:12:11Z</time>
      </trkpt>
      <trkpt lat="43.151971" lon="-4.810255">
        <ele>1404.01</ele>
        <time>2017-03-17T12:12:31Z</time>
      </trkpt>
      <trkpt lat="43.152008" lon="-4.810372">
        <ele>1407.08</ele>
        <time>2017-03-17T12:12:42Z</time>
      </trkpt>
      <trkpt lat="43.152063" lon="-4.810485">
        <ele>1406.04</ele>
        <time>2017-03-17T12:12:55Z</time>
      </trkpt>
      <trkpt lat="43.152124" lon="-4.810593">
        <ele>1416.10</ele>
        <time>2017-03-17T12:15:25Z</time>
      </trkpt>
      <trkpt lat="43.152174" lon="-4.810418">
        <ele>1421.05</ele>
        <time>2017-03-17T12:16:38Z</time>
      </trkpt>
      <trkpt lat="43.152227" lon="-4.810294">
        <ele>1419.02</ele>
        <time>2017-03-17T12:16:41Z</time>
      </trkpt>
      <trkpt lat="43.152270" lon="-4.810134">
        <ele>1410.09</ele>
        <time>2017-03-17T12:16:50Z</time>
      </trkpt>
      <trkpt lat="43.152289" lon="-4.809995">
        <ele>1410.08</ele>
        <time>2017-03-17T12:16:54Z</time>
      </trkpt>
      <trkpt lat="43.152243" lon="-4.809887">
        <ele>1406.01</ele>
        <time>2017-03-17T12:17:00Z</time>
      </trkpt>
      <trkpt lat="43.152286" lon="-4.809748">
        <ele>1403.09</ele>
        <time>2017-03-17T12:17:03Z</time>
      </trkpt>
      <trkpt lat="43.152284" lon="-4.809624">
        <ele>1395.01</ele>
        <time>2017-03-17T12:17:12Z</time>
      </trkpt>
      <trkpt lat="43.152286" lon="-4.809497">
        <ele>1396.03</ele>
        <time>2017-03-17T12:17:19Z</time>
      </trkpt>
      <trkpt lat="43.152320" lon="-4.809374">
        <ele>1397.01</ele>
        <time>2017-03-17T12:17:26Z</time>
      </trkpt>
      <trkpt lat="43.152238" lon="-4.809297">
        <ele>1397.04</ele>
        <time>2017-03-17T12:17:39Z</time>
      </trkpt>
      <trkpt lat="43.152274" lon="-4.809148">
        <ele>1396.08</ele>
        <time>2017-03-17T12:17:46Z</time>
      </trkpt>
      <trkpt lat="43.152313" lon="-4.808919">
        <ele>1403.09</ele>
        <time>2017-03-17T12:18:48Z</time>
      </trkpt>
      <trkpt lat="43.152181" lon="-4.808908">
        <ele>1402.01</ele>
        <time>2017-03-17T12:18:50Z</time>
      </trkpt>
      <trkpt lat="43.152174" lon="-4.808714">
        <ele>1400.02</ele>
        <time>2017-03-17T12:18:53Z</time>
      </trkpt>
      <trkpt lat="43.152142" lon="-4.808596">
        <ele>1401.06</ele>
        <time>2017-03-17T12:18:56Z</time>
      </trkpt>
      <trkpt lat="43.152138" lon="-4.808460">
        <ele>1400.09</ele>
        <time>2017-03-17T12:18:58Z</time>
      </trkpt>
      <trkpt lat="43.152049" lon="-4.808498">
        <ele>1401.05</ele>
        <time>2017-03-17T12:19:03Z</time>
      </trkpt>
      <trkpt lat="43.152007" lon="-4.808388">
        <ele>1399.05</ele>
        <time>2017-03-17T12:19:21Z</time>
      </trkpt>
      <trkpt lat="43.152045" lon="-4.808092">
        <ele>1399.09</ele>
        <time>2017-03-17T12:20:07Z</time>
      </trkpt>
      <trkpt lat="43.151987" lon="-4.807980">
        <ele>1396.02</ele>
        <time>2017-03-17T12:20:11Z</time>
      </trkpt>
      <trkpt lat="43.151891" lon="-4.807983">
        <ele>1401.01</ele>
        <time>2017-03-17T12:20:14Z</time>
      </trkpt>
      <trkpt lat="43.151844" lon="-4.807847">
        <ele>1406.10</ele>
        <time>2017-03-17T12:20:20Z</time>
      </trkpt>
      <trkpt lat="43.151769" lon="-4.807769">
        <ele>1409.04</ele>
        <time>2017-03-17T12:20:23Z</time>
      </trkpt>
      <trkpt lat="43.151799" lon="-4.807613">
        <ele>1405.02</ele>
        <time>2017-03-17T12:20:28Z</time>
      </trkpt>
      <trkpt lat="43.151680" lon="-4.807702">
        <ele>1416.08</ele>
        <time>2017-03-17T12:20:38Z</time>
      </trkpt>
      <trkpt lat="43.151694" lon="-4.807551">
        <ele>1414.04</ele>
        <time>2017-03-17T12:20:48Z</time>
      </trkpt>
      <trkpt lat="43.151731" lon="-4.807390">
        <ele>1415.09</ele>
        <time>2017-03-17T12:20:51Z</time>
      </trkpt>
      <trkpt lat="43.151672" lon="-4.807489">
        <ele>1421.01</ele>
        <time>2017-03-17T12:20:53Z</time>
      </trkpt>
      <trkpt lat="43.151634" lon="-4.807362">
        <ele>1423.09</ele>
        <time>2017-03-17T12:21:09Z</time>
      </trkpt>
      <trkpt lat="43.151591" lon="-4.807236">
        <ele>1423.06</ele>
        <time>2017-03-17T12:21:18Z</time>
      </trkpt>
      <trkpt lat="43.151544" lon="-4.807069">
        <ele>1420.08</ele>
        <time>2017-03-17T12:21:21Z</time>
      </trkpt>
      <trkpt lat="43.151616" lon="-4.806880">
        <ele>1419.01</ele>
        <time>2017-03-17T12:21:23Z</time>
      </trkpt>
      <trkpt lat="43.151601" lon="-4.807007">
        <ele>1420.01</ele>
        <time>2017-03-17T12:21:27Z</time>
      </trkpt>
      <trkpt lat="43.151474" lon="-4.807287">
        <ele>1425.07</ele>
        <time>2017-03-17T12:21:31Z</time>
      </trkpt>
      <trkpt lat="43.151510" lon="-4.807158">
        <ele>1427.03</ele>
        <time>2017-03-17T12:21:35Z</time>
      </trkpt>
      <trkpt lat="43.151493" lon="-4.807011">
        <ele>1427.07</ele>
        <time>2017-03-17T12:21:37Z</time>
      </trkpt>
      <trkpt lat="43.151541" lon="-4.806888">
        <ele>1424.08</ele>
        <time>2017-03-17T12:21:46Z</time>
      </trkpt>
      <trkpt lat="43.151493" lon="-4.806998">
        <ele>1429.02</ele>
        <time>2017-03-17T12:21:49Z</time>
      </trkpt>
      <trkpt lat="43.151427" lon="-4.806868">
        <ele>1427.09</ele>
        <time>2017-03-17T12:21:54Z</time>
      </trkpt>
      <trkpt lat="43.151378" lon="-4.807006">
        <ele>1429.09</ele>
        <time>2017-03-17T12:21:56Z</time>
      </trkpt>
      <trkpt lat="43.151304" lon="-4.807081">
        <ele>1436.09</ele>
        <time>2017-03-17T12:22:05Z</time>
      </trkpt>
      <trkpt lat="43.151206" lon="-4.807125">
        <ele>1436.06</ele>
        <time>2017-03-17T12:22:07Z</time>
      </trkpt>
      <trkpt lat="43.151077" lon="-4.807190">
        <ele>1433.03</ele>
        <time>2017-03-17T12:22:16Z</time>
      </trkpt>
      <trkpt lat="43.151102" lon="-4.807052">
        <ele>1433.01</ele>
        <time>2017-03-17T12:22:17Z</time>
      </trkpt>
      <trkpt lat="43.151007" lon="-4.807073">
        <ele>1440.06</ele>
        <time>2017-03-17T12:22:27Z</time>
      </trkpt>
      <trkpt lat="43.150897" lon="-4.807189">
        <ele>1444.09</ele>
        <time>2017-03-17T12:22:31Z</time>
      </trkpt>
      <trkpt lat="43.150937" lon="-4.807045">
        <ele>1444.06</ele>
        <time>2017-03-17T12:22:33Z</time>
      </trkpt>
      <trkpt lat="43.150869" lon="-4.807171">
        <ele>1448.04</ele>
        <time>2017-03-17T12:22:37Z</time>
      </trkpt>
      <trkpt lat="43.150765" lon="-4.807175">
        <ele>1464.06</ele>
        <time>2017-03-17T12:22:54Z</time>
      </trkpt>
      <trkpt lat="43.150638" lon="-4.807108">
        <ele>1506.06</ele>
        <time>2017-03-17T12:27:11Z</time>
      </trkpt>
      <trkpt lat="43.150639" lon="-4.806954">
        <ele>1503.08</ele>
        <time>2017-03-17T12:27:31Z</time>
      </trkpt>
      <trkpt lat="43.150655" lon="-4.806784">
        <ele>1503.03</ele>
        <time>2017-03-17T12:27:38Z</time>
      </trkpt>
      <trkpt lat="43.150703" lon="-4.806627">
        <ele>1502.09</ele>
        <time>2017-03-17T12:27:43Z</time>
      </trkpt>
      <trkpt lat="43.150871" lon="-4.806916">
        <ele>1504.07</ele>
        <time>2017-03-17T12:27:44Z</time>
      </trkpt>
      <trkpt lat="43.150833" lon="-4.806789">
        <ele>1504.02</ele>
        <time>2017-03-17T12:27:45Z</time>
      </trkpt>
      <trkpt lat="43.150941" lon="-4.806933">
        <ele>1504.01</ele>
        <time>2017-03-17T12:27:47Z</time>
      </trkpt>
      <trkpt lat="43.150990" lon="-4.806807">
        <ele>1505.02</ele>
        <time>2017-03-17T12:27:49Z</time>
      </trkpt>
      <trkpt lat="43.150910" lon="-4.806738">
        <ele>1506.08</ele>
        <time>2017-03-17T12:27:51Z</time>
      </trkpt>
      <trkpt lat="43.150864" lon="-4.806629">
        <ele>1509.06</ele>
        <time>2017-03-17T12:27:54Z</time>
      </trkpt>
      <trkpt lat="43.150948" lon="-4.806583">
        <ele>1513.10</ele>
        <time>2017-03-17T12:28:03Z</time>
      </trkpt>
      <trkpt lat="43.150931" lon="-4.806451">
        <ele>1511.05</ele>
        <time>2017-03-17T12:28:07Z</time>
      </trkpt>
      <trkpt lat="43.150826" lon="-4.806335">
        <ele>1512.04</ele>
        <time>2017-03-17T12:28:11Z</time>
      </trkpt>
      <trkpt lat="43.150815" lon="-4.806212">
        <ele>1511.10</ele>
        <time>2017-03-17T12:28:23Z</time>
      </trkpt>
      <trkpt lat="43.150827" lon="-4.806056">
        <ele>1512.04</ele>
        <time>2017-03-17T12:28:29Z</time>
      </trkpt>
      <trkpt lat="43.150995" lon="-4.805699">
        <ele>1515.02</ele>
        <time>2017-03-17T12:31:02Z</time>
      </trkpt>
      <trkpt lat="43.151006" lon="-4.805518">
        <ele>1534.07</ele>
        <time>2017-03-17T12:33:23Z</time>
      </trkpt>
      <trkpt lat="43.151100" lon="-4.805286">
        <ele>1534.01</ele>
        <time>2017-03-17T12:33:25Z</time>
      </trkpt>
      <trkpt lat="43.151150" lon="-4.805146">
        <ele>1534.01</ele>
        <time>2017-03-17T12:33:26Z</time>
      </trkpt>
      <trkpt lat="43.151092" lon="-4.804935">
        <ele>1534.01</ele>
        <time>2017-03-17T12:33:27Z</time>
      </trkpt>
      <trkpt lat="43.151144" lon="-4.804835">
        <ele>1536.05</ele>
        <time>2017-03-17T12:33:32Z</time>
      </trkpt>
      <trkpt lat="43.151153" lon="-4.804673">
        <ele>1534.07</ele>
        <time>2017-03-17T12:33:36Z</time>
      </trkpt>
      <trkpt lat="43.151128" lon="-4.804555">
        <ele>1530.10</ele>
        <time>2017-03-17T12:33:45Z</time>
      </trkpt>
      <trkpt lat="43.151091" lon="-4.804422">
        <ele>1527.01</ele>
        <time>2017-03-17T12:34:15Z</time>
      </trkpt>
      <trkpt lat="43.151051" lon="-4.804286">
        <ele>1517.08</ele>
        <time>2017-03-17T12:34:48Z</time>
      </trkpt>
      <trkpt lat="43.151030" lon="-4.804106">
        <ele>1513.04</ele>
        <time>2017-03-17T12:34:53Z</time>
      </trkpt>
      <trkpt lat="43.150994" lon="-4.803925">
        <ele>1504.04</ele>
        <time>2017-03-17T12:37:23Z</time>
      </trkpt>
      <trkpt lat="43.150939" lon="-4.803775">
        <ele>1502.04</ele>
        <time>2017-03-17T12:37:26Z</time>
      </trkpt>
      <trkpt lat="43.150886" lon="-4.803628">
        <ele>1504.02</ele>
        <time>2017-03-17T12:37:29Z</time>
      </trkpt>
      <trkpt lat="43.150772" lon="-4.803651">
        <ele>1513.01</ele>
        <time>2017-03-17T12:38:23Z</time>
      </trkpt>
      <trkpt lat="43.150671" lon="-4.803597">
        <ele>1521.01</ele>
        <time>2017-03-17T12:38:31Z</time>
      </trkpt>
      <trkpt lat="43.150549" lon="-4.803520">
        <ele>1540.09</ele>
        <time>2017-03-17T12:41:17Z</time>
      </trkpt>
      <trkpt lat="43.150640" lon="-4.803428">
        <ele>1538.04</ele>
        <time>2017-03-17T12:42:11Z</time>
      </trkpt>
      <trkpt lat="43.150683" lon="-4.803312">
        <ele>1540.07</ele>
        <time>2017-03-17T12:42:14Z</time>
      </trkpt>
      <trkpt lat="43.150662" lon="-4.803190">
        <ele>1543.04</ele>
        <time>2017-03-17T12:43:13Z</time>
      </trkpt>
      <trkpt lat="43.150654" lon="-4.803058">
        <ele>1542.03</ele>
        <time>2017-03-17T12:43:16Z</time>
      </trkpt>
      <trkpt lat="43.150652" lon="-4.802870">
        <ele>1543.02</ele>
        <time>2017-03-17T12:43:19Z</time>
      </trkpt>
      <trkpt lat="43.150596" lon="-4.802753">
        <ele>1550.03</ele>
        <time>2017-03-17T12:43:31Z</time>
      </trkpt>
      <trkpt lat="43.150482" lon="-4.802708">
        <ele>1557.08</ele>
        <time>2017-03-17T12:43:38Z</time>
      </trkpt>
      <trkpt lat="43.150420" lon="-4.802618">
        <ele>1546.07</ele>
        <time>2017-03-17T12:44:05Z</time>
      </trkpt>
      <trkpt lat="43.150497" lon="-4.802548">
        <ele>1542.09</ele>
        <time>2017-03-17T12:44:21Z</time>
      </trkpt>
      <trkpt lat="43.150540" lon="-4.802436">
        <ele>1535.01</ele>
        <time>2017-03-17T12:44:37Z</time>
      </trkpt>
      <trkpt lat="43.150481" lon="-4.802330">
        <ele>1537.01</ele>
        <time>2017-03-17T12:44:52Z</time>
      </trkpt>
      <trkpt lat="43.150417" lon="-4.802241">
        <ele>1543.08</ele>
        <time>2017-03-17T12:45:04Z</time>
      </trkpt>
      <trkpt lat="43.150486" lon="-4.802134">
        <ele>1541.03</ele>
        <time>2017-03-17T12:45:10Z</time>
      </trkpt>
      <trkpt lat="43.150530" lon="-4.802018">
        <ele>1547.05</ele>
        <time>2017-03-17T12:45:26Z</time>
      </trkpt>
      <trkpt lat="43.150439" lon="-4.801981">
        <ele>1545.05</ele>
        <time>2017-03-17T12:45:30Z</time>
      </trkpt>
      <trkpt lat="43.150442" lon="-4.801824">
        <ele>1543.05</ele>
        <time>2017-03-17T12:45:41Z</time>
      </trkpt>
      <trkpt lat="43.150468" lon="-4.801684">
        <ele>1543.02</ele>
        <time>2017-03-17T12:45:57Z</time>
      </trkpt>
      <trkpt lat="43.150388" lon="-4.801622">
        <ele>1558.07</ele>
        <time>2017-03-17T12:46:14Z</time>
      </trkpt>
      <trkpt lat="43.150367" lon="-4.801493">
        <ele>1561.03</ele>
        <time>2017-03-17T12:47:02Z</time>
      </trkpt>
      <trkpt lat="43.150309" lon="-4.801376">
        <ele>1567.03</ele>
        <time>2017-03-17T12:47:09Z</time>
      </trkpt>
      <trkpt lat="43.150331" lon="-4.801254">
        <ele>1571.06</ele>
        <time>2017-03-17T12:47:18Z</time>
      </trkpt>
      <trkpt lat="43.150271" lon="-4.801124">
        <ele>1562.01</ele>
        <time>2017-03-17T12:49:38Z</time>
      </trkpt>
      <trkpt lat="43.150318" lon="-4.801011">
        <ele>1555.01</ele>
        <time>2017-03-17T12:49:42Z</time>
      </trkpt>
      <trkpt lat="43.150109" lon="-4.800742">
        <ele>1590.08</ele>
        <time>2017-03-17T12:51:34Z</time>
      </trkpt>
      <trkpt lat="43.150221" lon="-4.800717">
        <ele>1590.02</ele>
        <time>2017-03-17T12:52:12Z</time>
      </trkpt>
      <trkpt lat="43.150307" lon="-4.800652">
        <ele>1596.04</ele>
        <time>2017-03-17T12:52:16Z</time>
      </trkpt>
      <trkpt lat="43.150402" lon="-4.800707">
        <ele>1602.10</ele>
        <time>2017-03-17T12:52:23Z</time>
      </trkpt>
      <trkpt lat="43.150499" lon="-4.800770">
        <ele>1599.05</ele>
        <time>2017-03-17T12:52:57Z</time>
      </trkpt>
      <trkpt lat="43.150590" lon="-4.800825">
        <ele>1601.04</ele>
        <time>2017-03-17T12:53:08Z</time>
      </trkpt>
      <trkpt lat="43.150661" lon="-4.800906">
        <ele>1613.01</ele>
        <time>2017-03-17T12:53:39Z</time>
      </trkpt>
      <trkpt lat="43.150703" lon="-4.801028">
        <ele>1626.04</ele>
        <time>2017-03-17T12:54:24Z</time>
      </trkpt>
      <trkpt lat="43.150765" lon="-4.801129">
        <ele>1627.02</ele>
        <time>2017-03-17T12:54:34Z</time>
      </trkpt>
      <trkpt lat="43.150822" lon="-4.801234">
        <ele>1625.10</ele>
        <time>2017-03-17T12:54:45Z</time>
      </trkpt>
      <trkpt lat="43.150793" lon="-4.801362">
        <ele>1638.02</ele>
        <time>2017-03-17T12:54:59Z</time>
      </trkpt>
      <trkpt lat="43.150808" lon="-4.801487">
        <ele>1641.01</ele>
        <time>2017-03-17T12:55:21Z</time>
      </trkpt>
      <trkpt lat="43.150804" lon="-4.801611">
        <ele>1645.08</ele>
        <time>2017-03-17T12:55:35Z</time>
      </trkpt>
      <trkpt lat="43.150845" lon="-4.801723">
        <ele>1650.07</ele>
        <time>2017-03-17T12:55:46Z</time>
      </trkpt>
      <trkpt lat="43.150887" lon="-4.801835">
        <ele>1648.02</ele>
        <time>2017-03-17T12:55:56Z</time>
      </trkpt>
      <trkpt lat="43.150985" lon="-4.801892">
        <ele>1647.05</ele>
        <time>2017-03-17T12:56:05Z</time>
      </trkpt>
      <trkpt lat="43.151039" lon="-4.802000">
        <ele>1648.03</ele>
        <time>2017-03-17T12:56:15Z</time>
      </trkpt>
      <trkpt lat="43.151083" lon="-4.802109">
        <ele>1647.08</ele>
        <time>2017-03-17T12:56:21Z</time>
      </trkpt>
      <trkpt lat="43.151154" lon="-4.802201">
        <ele>1645.07</ele>
        <time>2017-03-17T12:56:30Z</time>
      </trkpt>
      <trkpt lat="43.151210" lon="-4.802314">
        <ele>1644.05</ele>
        <time>2017-03-17T12:56:45Z</time>
      </trkpt>
      <trkpt lat="43.151213" lon="-4.802439">
        <ele>1649.01</ele>
        <time>2017-03-17T12:56:53Z</time>
      </trkpt>
      <trkpt lat="43.151259" lon="-4.802546">
        <ele>1653.05</ele>
        <time>2017-03-17T12:57:01Z</time>
      </trkpt>
      <trkpt lat="43.151282" lon="-4.802667">
        <ele>1655.01</ele>
        <time>2017-03-17T12:57:13Z</time>
      </trkpt>
      <trkpt lat="43.151280" lon="-4.802796">
        <ele>1655.01</ele>
        <time>2017-03-17T12:57:21Z</time>
      </trkpt>
      <trkpt lat="43.151264" lon="-4.802923">
        <ele>1655.01</ele>
        <time>2017-03-17T12:57:32Z</time>
      </trkpt>
      <trkpt lat="43.151279" lon="-4.803068">
        <ele>1653.08</ele>
        <time>2017-03-17T12:57:41Z</time>
      </trkpt>
      <trkpt lat="43.151369" lon="-4.803096">
        <ele>1655.04</ele>
        <time>2017-03-17T12:57:51Z</time>
      </trkpt>
      <trkpt lat="43.151442" lon="-4.803179">
        <ele>1654.07</ele>
        <time>2017-03-17T12:57:58Z</time>
      </trkpt>
      <trkpt lat="43.151522" lon="-4.803239">
        <ele>1652.03</ele>
        <time>2017-03-17T12:58:07Z</time>
      </trkpt>
      <trkpt lat="43.151628" lon="-4.803192">
        <ele>1655.05</ele>
        <time>2017-03-17T12:58:23Z</time>
      </trkpt>
      <trkpt lat="43.151718" lon="-4.803224">
        <ele>1652.02</ele>
        <time>2017-03-17T12:58:29Z</time>
      </trkpt>
      <trkpt lat="43.151785" lon="-4.803313">
        <ele>1659.05</ele>
        <time>2017-03-17T12:58:44Z</time>
      </trkpt>
      <trkpt lat="43.151878" lon="-4.803291">
        <ele>1667.06</ele>
        <time>2017-03-17T12:59:04Z</time>
      </trkpt>
      <trkpt lat="43.151970" lon="-4.803316">
        <ele>1661.01</ele>
        <time>2017-03-17T12:59:14Z</time>
      </trkpt>
      <trkpt lat="43.152049" lon="-4.803419">
        <ele>1656.02</ele>
        <time>2017-03-17T12:59:20Z</time>
      </trkpt>
      <trkpt lat="43.152141" lon="-4.803468">
        <ele>1650.01</ele>
        <time>2017-03-17T12:59:25Z</time>
      </trkpt>
      <trkpt lat="43.152182" lon="-4.803590">
        <ele>1653.08</ele>
        <time>2017-03-17T12:59:35Z</time>
      </trkpt>
      <trkpt lat="43.152255" lon="-4.803663">
        <ele>1651.09</ele>
        <time>2017-03-17T12:59:45Z</time>
      </trkpt>
      <trkpt lat="43.152329" lon="-4.803754">
        <ele>1654.08</ele>
        <time>2017-03-17T13:00:06Z</time>
      </trkpt>
      <trkpt lat="43.152378" lon="-4.803865">
        <ele>1661.01</ele>
        <time>2017-03-17T13:00:35Z</time>
      </trkpt>
      <trkpt lat="43.152413" lon="-4.803981">
        <ele>1674.08</ele>
        <time>2017-03-17T13:01:09Z</time>
      </trkpt>
      <trkpt lat="43.152505" lon="-4.804037">
        <ele>1671.06</ele>
        <time>2017-03-17T13:01:49Z</time>
      </trkpt>
      <trkpt lat="43.152556" lon="-4.804139">
        <ele>1680.05</ele>
        <time>2017-03-17T13:02:26Z</time>
      </trkpt>
      <trkpt lat="43.152587" lon="-4.804260">
        <ele>1687.06</ele>
        <time>2017-03-17T13:03:01Z</time>
      </trkpt>
      <trkpt lat="43.152677" lon="-4.804302">
        <ele>1690.01</ele>
        <time>2017-03-17T13:03:14Z</time>
      </trkpt>
      <trkpt lat="43.152693" lon="-4.804434">
        <ele>1689.02</ele>
        <time>2017-03-17T13:03:54Z</time>
      </trkpt>
      <trkpt lat="43.152740" lon="-4.804550">
        <ele>1697.00</ele>
        <time>2017-03-17T13:04:42Z</time>
      </trkpt>
      <trkpt lat="43.152723" lon="-4.804676">
        <ele>1703.01</ele>
        <time>2017-03-17T13:05:08Z</time>
      </trkpt>
      <trkpt lat="43.152807" lon="-4.804737">
        <ele>1706.07</ele>
        <time>2017-03-17T13:05:57Z</time>
      </trkpt>
      <trkpt lat="43.152886" lon="-4.804798">
        <ele>1714.08</ele>
        <time>2017-03-17T13:07:31Z</time>
      </trkpt>
      <trkpt lat="43.152950" lon="-4.804897">
        <ele>1718.10</ele>
        <time>2017-03-17T13:07:51Z</time>
      </trkpt>
      <trkpt lat="43.153030" lon="-4.804957">
        <ele>1717.09</ele>
        <time>2017-03-17T13:08:08Z</time>
      </trkpt>
      <trkpt lat="43.153111" lon="-4.805011">
        <ele>1720.05</ele>
        <time>2017-03-17T13:08:58Z</time>
      </trkpt>
      <trkpt lat="43.153189" lon="-4.805078">
        <ele>1721.01</ele>
        <time>2017-03-17T13:09:27Z</time>
      </trkpt>
      <trkpt lat="43.153256" lon="-4.805166">
        <ele>1727.02</ele>
        <time>2017-03-17T13:09:57Z</time>
      </trkpt>
      <trkpt lat="43.153302" lon="-4.805286">
        <ele>1740.05</ele>
        <time>2017-03-17T13:10:36Z</time>
      </trkpt>
      <trkpt lat="43.153373" lon="-4.805366">
        <ele>1738.05</ele>
        <time>2017-03-17T13:10:47Z</time>
      </trkpt>
      <trkpt lat="43.153316" lon="-4.805469">
        <ele>1747.06</ele>
        <time>2017-03-17T13:11:52Z</time>
      </trkpt>
      <trkpt lat="43.153286" lon="-4.805585">
        <ele>1751.01</ele>
        <time>2017-03-17T13:12:18Z</time>
      </trkpt>
      <trkpt lat="43.153245" lon="-4.805710">
        <ele>1756.01</ele>
        <time>2017-03-17T13:12:35Z</time>
      </trkpt>
      <trkpt lat="43.153258" lon="-4.805839">
        <ele>1756.05</ele>
        <time>2017-03-17T13:13:02Z</time>
      </trkpt>
      <trkpt lat="43.153189" lon="-4.805931">
        <ele>1777.08</ele>
        <time>2017-03-17T13:14:29Z</time>
      </trkpt>
      <trkpt lat="43.153181" lon="-4.806063">
        <ele>1777.01</ele>
        <time>2017-03-17T13:17:57Z</time>
      </trkpt>
      <trkpt lat="43.153130" lon="-4.806167">
        <ele>1792.03</ele>
        <time>2017-03-17T13:18:57Z</time>
      </trkpt>
      <trkpt lat="43.153124" lon="-4.806290">
        <ele>1799.08</ele>
        <time>2017-03-17T13:19:55Z</time>
      </trkpt>
      <trkpt lat="43.153127" lon="-4.806416">
        <ele>1808.02</ele>
        <time>2017-03-17T13:20:54Z</time>
      </trkpt>
      <trkpt lat="43.153142" lon="-4.806552">
        <ele>1811.01</ele>
        <time>2017-03-17T13:21:23Z</time>
      </trkpt>
      <trkpt lat="43.153161" lon="-4.806673">
        <ele>1812.07</ele>
        <time>2017-03-17T13:21:50Z</time>
      </trkpt>
      <trkpt lat="43.153196" lon="-4.806789">
        <ele>1815.05</ele>
        <time>2017-03-17T13:22:10Z</time>
      </trkpt>
      <trkpt lat="43.153239" lon="-4.806899">
        <ele>1815.00</ele>
        <time>2017-03-17T13:22:34Z</time>
      </trkpt>
      <trkpt lat="43.153295" lon="-4.806997">
        <ele>1825.01</ele>
        <time>2017-03-17T13:24:00Z</time>
      </trkpt>
      <trkpt lat="43.153380" lon="-4.807037">
        <ele>1824.01</ele>
        <time>2017-03-17T13:24:09Z</time>
      </trkpt>
      <trkpt lat="43.153472" lon="-4.807058">
        <ele>1825.02</ele>
        <time>2017-03-17T13:24:38Z</time>
      </trkpt>
      <trkpt lat="43.153557" lon="-4.807115">
        <ele>1829.08</ele>
        <time>2017-03-17T13:24:59Z</time>
      </trkpt>
      <trkpt lat="43.153545" lon="-4.807249">
        <ele>1836.06</ele>
        <time>2017-03-17T13:25:14Z</time>
      </trkpt>
      <trkpt lat="43.153540" lon="-4.807375">
        <ele>1838.04</ele>
        <time>2017-03-17T13:25:32Z</time>
      </trkpt>
      <trkpt lat="43.153570" lon="-4.807493">
        <ele>1838.07</ele>
        <time>2017-03-17T13:25:42Z</time>
      </trkpt>
      <trkpt lat="43.153606" lon="-4.807613">
        <ele>1836.05</ele>
        <time>2017-03-17T13:25:52Z</time>
      </trkpt>
      <trkpt lat="43.153664" lon="-4.807711">
        <ele>1839.06</ele>
        <time>2017-03-17T13:26:05Z</time>
      </trkpt>
      <trkpt lat="43.153717" lon="-4.807811">
        <ele>1840.10</ele>
        <time>2017-03-17T13:26:26Z</time>
      </trkpt>
      <trkpt lat="43.153804" lon="-4.807849">
        <ele>1845.03</ele>
        <time>2017-03-17T13:28:57Z</time>
      </trkpt>
      <trkpt lat="43.153892" lon="-4.807798">
        <ele>1843.03</ele>
        <time>2017-03-17T13:29:31Z</time>
      </trkpt>
      <trkpt lat="43.153969" lon="-4.807730">
        <ele>1854.01</ele>
        <time>2017-03-17T13:32:12Z</time>
      </trkpt>
      <trkpt lat="43.154067" lon="-4.807700">
        <ele>1857.01</ele>
        <time>2017-03-17T13:32:57Z</time>
      </trkpt>
      <trkpt lat="43.154053" lon="-4.807570">
        <ele>1865.03</ele>
        <time>2017-03-17T13:33:49Z</time>
      </trkpt>
      <trkpt lat="43.153987" lon="-4.807476">
        <ele>1871.09</ele>
        <time>2017-03-17T13:34:15Z</time>
      </trkpt>
      <trkpt lat="43.153926" lon="-4.807365">
        <ele>1873.01</ele>
        <time>2017-03-17T13:34:23Z</time>
      </trkpt>
      <trkpt lat="43.153903" lon="-4.807239">
        <ele>1875.03</ele>
        <time>2017-03-17T13:34:39Z</time>
      </trkpt>
      <trkpt lat="43.153940" lon="-4.807126">
        <ele>1876.06</ele>
        <time>2017-03-17T13:37:35Z</time>
      </trkpt>
      <trkpt lat="43.153980" lon="-4.807009">
        <ele>1874.02</ele>
        <time>2017-03-17T13:37:48Z</time>
      </trkpt>
      <trkpt lat="43.154002" lon="-4.806882">
        <ele>1872.03</ele>
        <time>2017-03-17T13:37:59Z</time>
      </trkpt>
      <trkpt lat="43.153985" lon="-4.806757">
        <ele>1873.07</ele>
        <time>2017-03-17T13:38:30Z</time>
      </trkpt>
      <trkpt lat="43.153943" lon="-4.806645">
        <ele>1869.04</ele>
        <time>2017-03-17T13:39:01Z</time>
      </trkpt>
      <trkpt lat="43.153850" lon="-4.806592">
        <ele>1871.08</ele>
        <time>2017-03-17T13:39:14Z</time>
      </trkpt>
      <trkpt lat="43.153762" lon="-4.806546">
        <ele>1878.01</ele>
        <time>2017-03-17T13:39:19Z</time>
      </trkpt>
      <trkpt lat="43.153685" lon="-4.806481">
        <ele>1880.01</ele>
        <time>2017-03-17T13:39:30Z</time>
      </trkpt>
      <trkpt lat="43.153620" lon="-4.806390">
        <ele>1882.08</ele>
        <time>2017-03-17T13:39:46Z</time>
      </trkpt>
      <trkpt lat="43.153591" lon="-4.806269">
        <ele>1882.02</ele>
        <time>2017-03-17T13:39:55Z</time>
      </trkpt>
      <trkpt lat="43.153537" lon="-4.806163">
        <ele>1883.05</ele>
        <time>2017-03-17T13:40:08Z</time>
      </trkpt>
      <trkpt lat="43.153523" lon="-4.806029">
        <ele>1883.05</ele>
        <time>2017-03-17T13:40:27Z</time>
      </trkpt>
      <trkpt lat="43.153601" lon="-4.805923">
        <ele>1881.03</ele>
        <time>2017-03-17T13:41:53Z</time>
      </trkpt>
      <trkpt lat="43.153693" lon="-4.805889">
        <ele>1889.08</ele>
        <time>2017-03-17T13:42:12Z</time>
      </trkpt>
      <trkpt lat="43.153786" lon="-4.805885">
        <ele>1896.07</ele>
        <time>2017-03-17T13:42:43Z</time>
      </trkpt>
      <trkpt lat="43.153877" lon="-4.805875">
        <ele>1896.10</ele>
        <time>2017-03-17T13:46:43Z</time>
      </trkpt>
      <trkpt lat="43.153545" lon="-4.805782">
        <ele>1853.491</ele>
        <time>2018-07-16T10:20:58Z</time>
      </trkpt>
      <trkpt lat="43.153696" lon="-4.805720">
        <ele>1853.481</ele>
        <time>2018-07-16T10:21:16Z</time>
      </trkpt>
      <trkpt lat="43.154231" lon="-4.806064">
        <ele>1853.219</ele>
        <time>2018-07-16T10:22:28Z</time>
      </trkpt>
      <trkpt lat="43.154385" lon="-4.805668">
        <ele>1853.808</ele>
        <time>2018-07-16T10:23:07Z</time>
      </trkpt>
      <trkpt lat="43.154710" lon="-4.805578">
        <ele>1853.741</ele>
        <time>2018-07-16T10:24:27Z</time>
      </trkpt>
      <trkpt lat="43.154871" lon="-4.805296">
        <ele>1853.995</ele>
        <time>2018-07-16T10:24:52Z</time>
      </trkpt>
      <trkpt lat="43.155694" lon="-4.806074">
        <ele>1869.075</ele>
        <time>2018-07-16T10:26:32Z</time>
      </trkpt>
      <trkpt lat="43.155985" lon="-4.805737">
        <ele>1867.386</ele>
        <time>2018-07-16T10:27:12Z</time>
      </trkpt>
      <trkpt lat="43.156181" lon="-4.805765">
        <ele>1868.755</ele>
        <time>2018-07-16T10:27:32Z</time>
      </trkpt>
      <trkpt lat="43.157257" lon="-4.807726">
        <ele>1884.472</ele>
        <time>2018-07-16T10:30:24Z</time>
      </trkpt>
      <trkpt lat="43.158355" lon="-4.808087">
        <ele>1889.881</ele>
        <time>2018-07-16T10:32:32Z</time>
      </trkpt>
      <trkpt lat="43.159075" lon="-4.808983">
        <ele>1893.239</ele>
        <time>2018-07-16T10:34:07Z</time>
      </trkpt>
      <trkpt lat="43.159872" lon="-4.809585">
        <ele>1899.256</ele>
        <time>2018-07-16T10:35:44Z</time>
      </trkpt>
      <trkpt lat="43.160084" lon="-4.809311">
        <ele>1899.259</ele>
        <time>2018-07-16T10:36:17Z</time>
      </trkpt>
      <trkpt lat="43.160288" lon="-4.808457">
        <ele>1905.914</ele>
        <time>2018-07-16T10:37:23Z</time>
      </trkpt>
      <trkpt lat="43.160603" lon="-4.805953">
        <ele>1924.308</ele>
        <time>2018-07-16T10:41:11Z</time>
      </trkpt>
      <trkpt lat="43.160580" lon="-4.806633">
        <ele>1928.137</ele>
        <time>2018-07-16T10:42:49Z</time>
      </trkpt>
      <trkpt lat="43.160759" lon="-4.807344">
        <ele>1924.381</ele>
        <time>2018-07-16T10:43:39Z</time>
      </trkpt>
      <trkpt lat="43.160996" lon="-4.807703">
        <ele>1922.861</ele>
        <time>2018-07-16T10:44:13Z</time>
      </trkpt>
      <trkpt lat="43.162356" lon="-4.808908">
        <ele>1930.582</ele>
        <time>2018-07-16T10:47:18Z</time>
      </trkpt>
      <trkpt lat="43.163151" lon="-4.809147">
        <ele>1926.491</ele>
        <time>2018-07-16T10:48:27Z</time>
      </trkpt>
      <trkpt lat="43.163241" lon="-4.809510">
        <ele>1932.498</ele>
        <time>2018-07-16T10:49:14Z</time>
      </trkpt>
      <trkpt lat="43.163535" lon="-4.809726">
        <ele>1934.627</ele>
        <time>2018-07-16T10:49:47Z</time>
      </trkpt>
      <trkpt lat="43.164268" lon="-4.809857">
        <ele>1920.895</ele>
        <time>2018-07-16T10:50:47Z</time>
      </trkpt>
      <trkpt lat="43.164230" lon="-4.810376">
        <ele>1922.282</ele>
        <time>2018-07-16T10:51:18Z</time>
      </trkpt>
      <trkpt lat="43.165014" lon="-4.812152">
        <ele>1931.643</ele>
        <time>2018-07-16T10:54:42Z</time>
      </trkpt>
      <trkpt lat="43.165357" lon="-4.812611">
        <ele>1931.517</ele>
        <time>2018-07-16T10:55:33Z</time>
      </trkpt>
      <trkpt lat="43.167990" lon="-4.813336">
        <ele>1917.408</ele>
        <time>2018-07-16T10:59:56Z</time>
      </trkpt>
      <trkpt lat="43.168764" lon="-4.814510">
        <ele>1945.850</ele>
        <time>2018-07-16T11:01:45Z</time>
      </trkpt>
      <trkpt lat="43.169103" lon="-4.815416">
        <ele>1958.064</ele>
        <time>2018-07-16T11:03:12Z</time>
      </trkpt>
      <trkpt lat="43.170509" lon="-4.815753">
        <ele>1960.264</ele>
        <time>2018-07-16T11:09:19Z</time>
      </trkpt>
      <trkpt lat="43.171039" lon="-4.816454">
        <ele>1988.765</ele>
        <time>2018-07-16T11:10:45Z</time>
      </trkpt>
      <trkpt lat="43.170972" lon="-4.816564">
        <ele>1991.224</ele>
        <time>2018-07-16T11:11:04Z</time>
      </trkpt>
      <trkpt lat="43.172443" lon="-4.817490">
        <ele>2024.231</ele>
        <time>2018-07-16T11:18:01Z</time>
      </trkpt>
      <trkpt lat="43.172683" lon="-4.818967">
        <ele>2053.810</ele>
        <time>2018-07-16T11:21:22Z</time>
      </trkpt>
      <trkpt lat="43.173078" lon="-4.819534">
        <ele>2059.048</ele>
        <time>2018-07-16T11:22:50Z</time>
      </trkpt>
      <trkpt lat="43.173098" lon="-4.819960">
        <ele>2066.913</ele>
        <time>2018-07-16T11:23:37Z</time>
      </trkpt>
      <trkpt lat="43.173913" lon="-4.821557">
        <ele>2101.343</ele>
        <time>2018-07-16T11:27:22Z</time>
      </trkpt>
      <trkpt lat="43.174071" lon="-4.822561">
        <ele>2114.007</ele>
        <time>2018-07-16T11:34:58Z</time>
      </trkpt>
      <trkpt lat="43.174413" lon="-4.822373">
        <ele>2116.308</ele>
        <time>2018-07-16T11:36:27Z</time>
      </trkpt>
      <trkpt lat="43.174386" lon="-4.822667">
        <ele>2125.173</ele>
        <time>2018-07-16T11:37:24Z</time>
      </trkpt>
      <trkpt lat="43.174694" lon="-4.822558">
        <ele>2132.967</ele>
        <time>2018-07-16T11:38:36Z</time>
      </trkpt>
      <trkpt lat="43.174708" lon="-4.822731">
        <ele>2140.597</ele>
        <time>2018-07-16T11:39:15Z</time>
      </trkpt>
      <trkpt lat="43.174983" lon="-4.822698">
        <ele>2149.788</ele>
        <time>2018-07-16T11:39:58Z</time>
      </trkpt>
      <trkpt lat="43.175480" lon="-4.822967">
        <ele>2158.157</ele>
        <time>2018-07-16T11:41:40Z</time>
      </trkpt>
      <trkpt lat="43.175931" lon="-4.822788">
        <ele>2167.754</ele>
        <time>2018-07-16T11:43:35Z</time>
      </trkpt>
      <trkpt lat="43.175983" lon="-4.823484">
        <ele>2190.693</ele>
        <time>2018-07-16T11:47:09Z</time>
      </trkpt>
      <trkpt lat="43.176273" lon="-4.823232">
        <ele>2196.791</ele>
        <time>2018-07-16T11:49:22Z</time>
      </trkpt>
      <trkpt lat="43.176349" lon="-4.822970">
        <ele>2204.012</ele>
        <time>2018-07-16T11:50:12Z</time>
      </trkpt>
      <trkpt lat="43.176779" lon="-4.824289">
        <ele>2231.132</ele>
        <time>2018-07-16T11:54:54Z</time>
      </trkpt>
      <trkpt lat="43.176698" lon="-4.825102">
        <ele>2228.905</ele>
        <time>2018-07-16T11:58:26Z</time>
      </trkpt>
      <trkpt lat="43.176919" lon="-4.825237">
        <ele>2229.108</ele>
        <time>2018-07-16T11:58:57Z</time>
      </trkpt>
      <trkpt lat="43.176884" lon="-4.826033">
        <ele>2239.813</ele>
        <time>2018-07-16T12:02:59Z</time>
      </trkpt>
      <trkpt lat="43.177438" lon="-4.826949">
        <ele>2251.387</ele>
        <time>2018-07-16T12:06:00Z</time>
      </trkpt>
      <trkpt lat="43.177938" lon="-4.827229">
        <ele>2252.677</ele>
        <time>2018-07-16T12:07:51Z</time>
      </trkpt>
      <trkpt lat="43.177991" lon="-4.827474">
        <ele>2251.158</ele>
        <time>2018-07-16T12:08:20Z</time>
      </trkpt>
      <trkpt lat="43.178320" lon="-4.827464">
        <ele>2248.867</ele>
        <time>2018-07-16T12:08:42Z</time>
      </trkpt>
      <trkpt lat="43.178515" lon="-4.828089">
        <ele>2247.444</ele>
        <time>2018-07-16T12:10:08Z</time>
      </trkpt>
      <trkpt lat="43.178476" lon="-4.828342">
        <ele>2242.323</ele>
        <time>2018-07-16T12:10:32Z</time>
      </trkpt>
      <trkpt lat="43.178628" lon="-4.828618">
        <ele>2233.571</ele>
        <time>2018-07-16T12:10:54Z</time>
      </trkpt>
      <trkpt lat="43.178513" lon="-4.829613">
        <ele>2196.216</ele>
        <time>2018-07-16T12:12:54Z</time>
      </trkpt>
      <trkpt lat="43.178365" lon="-4.830135">
        <ele>2185.776</ele>
        <time>2018-07-16T12:14:07Z</time>
      </trkpt>
      <trkpt lat="43.178240" lon="-4.830248">
        <ele>2184.813</ele>
        <time>2018-07-16T12:14:22Z</time>
      </trkpt>
      <trkpt lat="43.178019" lon="-4.830141">
        <ele>2201.508</ele>
        <time>2018-07-16T12:15:03Z</time>
      </trkpt>
      <trkpt lat="43.177866" lon="-4.830538">
        <ele>2220.573</ele>
        <time>2018-07-16T12:16:24Z</time>
      </trkpt>
      <trkpt lat="43.177841" lon="-4.830941">
        <ele>2231.917</ele>
        <time>2018-07-16T12:17:18Z</time>
      </trkpt>
      <trkpt lat="43.178010" lon="-4.831205">
        <ele>2229.327</ele>
        <time>2018-07-16T12:18:07Z</time>
      </trkpt>
      <trkpt lat="43.177860" lon="-4.831475">
        <ele>2228.188</ele>
        <time>2018-07-16T12:18:57Z</time>
      </trkpt>
      <trkpt lat="43.178080" lon="-4.831614">
        <ele>2224.997</ele>
        <time>2018-07-16T12:19:23Z</time>
      </trkpt>
      <trkpt lat="43.178130" lon="-4.832168">
        <ele>2219.174</ele>
        <time>2018-07-16T12:20:29Z</time>
      </trkpt>
      <trkpt lat="43.177938" lon="-4.832493">
        <ele>2232.333</ele>
        <time>2018-07-16T12:21:14Z</time>
      </trkpt>
      <trkpt lat="43.177817" lon="-4.833288">
        <ele>2268.811</ele>
        <time>2018-07-16T12:23:44Z</time>
      </trkpt>
      <trkpt lat="43.177372" lon="-4.833315">
        <ele>2275.218</ele>
        <time>2018-07-16T12:25:13Z</time>
      </trkpt>
      <trkpt lat="43.176760" lon="-4.833910">
        <ele>2289.398</ele>
        <time>2018-07-16T12:29:12Z</time>
      </trkpt>
      <trkpt lat="43.176409" lon="-4.834676">
        <ele>2308.017</ele>
        <time>2018-07-16T12:33:01Z</time>
      </trkpt>
      <trkpt lat="43.176168" lon="-4.834843">
        <ele>2322.808</ele>
        <time>2018-07-16T12:34:04Z</time>
      </trkpt>
      <trkpt lat="43.176224" lon="-4.834479">
        <ele>2333.533</ele>
        <time>2018-07-16T12:34:45Z</time>
      </trkpt>
      <trkpt lat="43.176084" lon="-4.834165">
        <ele>2333.727</ele>
        <time>2018-07-16T12:59:25Z</time>
      </trkpt>
      <trkpt lat="43.176287" lon="-4.834444">
        <ele>2329.137</ele>
        <time>2018-07-16T13:12:51Z</time>
      </trkpt>
      <trkpt lat="43.176317" lon="-4.835031">
        <ele>2330.778</ele>
        <time>2018-07-16T13:16:02Z</time>
      </trkpt>
      <trkpt lat="43.176572" lon="-4.835665">
        <ele>2342.987</ele>
        <time>2018-07-16T13:19:23Z</time>
      </trkpt>
      <trkpt lat="43.176473" lon="-4.835618">
        <ele>2344.284</ele>
        <time>2018-07-16T13:19:34Z</time>
      </trkpt>
      <trkpt lat="43.176352" lon="-4.836357">
        <ele>2355.933</ele>
        <time>2018-07-16T13:22:57Z</time>
      </trkpt>
      <trkpt lat="43.176625" lon="-4.836746">
        <ele>2361.191</ele>
        <time>2018-07-16T13:24:50Z</time>
      </trkpt>
      <trkpt lat="43.176673" lon="-4.837240">
        <ele>2361.072</ele>
        <time>2018-07-16T13:26:49Z</time>
      </trkpt>
      <trkpt lat="43.176509" lon="-4.837493">
        <ele>2361.813</ele>
        <time>2018-07-16T13:28:58Z</time>
      </trkpt>
      <trkpt lat="43.175922" lon="-4.837598">
        <ele>2363.014</ele>
        <time>2018-07-16T13:31:31Z</time>
      </trkpt>
      <trkpt lat="43.175042" lon="-4.837416">
        <ele>2371.608</ele>
        <time>2018-07-16T13:37:22Z</time>
      </trkpt>
      <trkpt lat="43.175019" lon="-4.837215">
        <ele>2370.039</ele>
        <time>2018-07-16T13:38:57Z</time>
      </trkpt>
      <trkpt lat="43.174875" lon="-4.837552">
        <ele>2368.513</ele>
        <time>2018-07-16T13:40:03Z</time>
      </trkpt>
      <trkpt lat="43.174374" lon="-4.837975">
        <ele>2358.023</ele>
        <time>2018-07-16T13:45:40Z</time>
      </trkpt>
      <trkpt lat="43.174244" lon="-4.838400">
        <ele>2355.194</ele>
        <time>2018-07-16T13:47:38Z</time>
      </trkpt>
      <trkpt lat="43.173681" lon="-4.838501">
        <ele>2343.663</ele>
        <time>2018-07-16T13:54:34Z</time>
      </trkpt>
      <trkpt lat="43.172802" lon="-4.839076">
        <ele>2304.330</ele>
        <time>2018-07-16T14:04:24Z</time>
      </trkpt>
      <trkpt lat="43.172573" lon="-4.838863">
        <ele>2291.479</ele>
        <time>2018-07-16T14:05:10Z</time>
      </trkpt>
      <trkpt lat="43.172258" lon="-4.838905">
        <ele>2281.757</ele>
        <time>2018-07-16T14:06:19Z</time>
      </trkpt>
      <trkpt lat="43.172185" lon="-4.838560">
        <ele>2278.577</ele>
        <time>2018-07-16T14:07:00Z</time>
      </trkpt>
      <trkpt lat="43.171697" lon="-4.838363">
        <ele>2262.861</ele>
        <time>2018-07-16T14:09:41Z</time>
      </trkpt>
      <trkpt lat="43.171333" lon="-4.838825">
        <ele>2266.827</ele>
        <time>2018-07-16T14:11:18Z</time>
      </trkpt>
      <trkpt lat="43.171653" lon="-4.838279">
        <ele>2274.308</ele>
        <time>2018-07-16T14:11:56Z</time>
      </trkpt>
      <trkpt lat="43.170881" lon="-4.837788">
        <ele>2275.689</ele>
        <time>2018-07-16T14:15:44Z</time>
      </trkpt>
      <trkpt lat="43.170661" lon="-4.837475">
        <ele>2279.313</ele>
        <time>2018-07-16T14:16:45Z</time>
      </trkpt>
      <trkpt lat="43.169657" lon="-4.837288">
        <ele>2295.073</ele>
        <time>2018-07-16T14:20:12Z</time>
      </trkpt>
      <trkpt lat="43.169118" lon="-4.837692">
        <ele>2296.234</ele>
        <time>2018-07-16T14:24:43Z</time>
      </trkpt>
      <trkpt lat="43.169142" lon="-4.837861">
        <ele>2296.813</ele>
        <time>2018-07-16T14:30:57Z</time>
      </trkpt>
      <trkpt lat="43.168237" lon="-4.838455">
        <ele>2288.610</ele>
        <time>2018-07-16T14:34:57Z</time>
      </trkpt>
      <trkpt lat="43.168043" lon="-4.838868">
        <ele>2288.419</ele>
        <time>2018-07-16T14:38:18Z</time>
      </trkpt>
      <trkpt lat="43.167435" lon="-4.839408">
        <ele>2288.757</ele>
        <time>2018-07-16T14:43:06Z</time>
      </trkpt>
      <trkpt lat="43.167571" lon="-4.839124">
        <ele>2284.758</ele>
        <time>2018-07-16T14:43:18Z</time>
      </trkpt>
      <trkpt lat="43.167321" lon="-4.839671">
        <ele>2283.352</ele>
        <time>2018-07-16T14:43:51Z</time>
      </trkpt>
      <trkpt lat="43.167169" lon="-4.838948">
        <ele>2290.217</ele>
        <time>2018-07-16T14:44:59Z</time>
      </trkpt>
      <trkpt lat="43.167298" lon="-4.838745">
        <ele>2302.208</ele>
        <time>2018-07-16T14:45:09Z</time>
      </trkpt>
      <trkpt lat="43.167048" lon="-4.840545">
        <ele>2302.267</ele>
        <time>2018-07-16T14:45:37Z</time>
      </trkpt>
      <trkpt lat="43.167040" lon="-4.839948">
        <ele>2298.241</ele>
        <time>2018-07-16T14:45:44Z</time>
      </trkpt>
      <trkpt lat="43.166838" lon="-4.839638">
        <ele>2290.231</ele>
        <time>2018-07-16T14:47:41Z</time>
      </trkpt>
      <trkpt lat="43.166746" lon="-4.840531">
        <ele>2286.242</ele>
        <time>2018-07-16T14:47:56Z</time>
      </trkpt>
      <trkpt lat="43.167064" lon="-4.839979">
        <ele>2278.271</ele>
        <time>2018-07-16T14:49:20Z</time>
      </trkpt>
      <trkpt lat="43.166855" lon="-4.840717">
        <ele>2222.318</ele>
        <time>2018-07-16T15:04:37Z</time>
      </trkpt>
      <trkpt lat="43.166928" lon="-4.840427">
        <ele>2238.347</ele>
        <time>2018-07-16T15:07:47Z</time>
      </trkpt>
      <trkpt lat="43.166639" lon="-4.840738">
        <ele>2262.355</ele>
        <time>2018-07-16T15:17:20Z</time>
      </trkpt>
      <trkpt lat="43.166522" lon="-4.842147">
        <ele>2276.554</ele>
        <time>2018-07-16T15:22:38Z</time>
      </trkpt>
      <trkpt lat="43.166681" lon="-4.842955">
        <ele>2263.556</ele>
        <time>2018-07-16T15:25:02Z</time>
      </trkpt>
      <trkpt lat="43.166406" lon="-4.843474">
        <ele>2268.311</ele>
        <time>2018-07-16T15:26:23Z</time>
      </trkpt>
      <trkpt lat="43.166294" lon="-4.844114">
        <ele>2266.508</ele>
        <time>2018-07-16T15:27:53Z</time>
      </trkpt>
      <trkpt lat="43.166395" lon="-4.844866">
        <ele>2256.997</ele>
        <time>2018-07-16T15:30:10Z</time>
      </trkpt>
      <trkpt lat="43.166112" lon="-4.845251">
        <ele>2263.911</ele>
        <time>2018-07-16T15:32:48Z</time>
      </trkpt>
      <trkpt lat="43.166100" lon="-4.846005">
        <ele>2290.311</ele>
        <time>2018-07-16T15:34:44Z</time>
      </trkpt>
      <trkpt lat="43.166444" lon="-4.846585">
        <ele>2275.842</ele>
        <time>2018-07-16T15:39:50Z</time>
      </trkpt>
      <trkpt lat="43.166524" lon="-4.847322">
        <ele>2249.511</ele>
        <time>2018-07-16T15:46:31Z</time>
      </trkpt>
      <trkpt lat="43.166967" lon="-4.847558">
        <ele>2244.918</ele>
        <time>2018-07-16T15:48:12Z</time>
      </trkpt>
      <trkpt lat="43.167075" lon="-4.848848">
        <ele>2242.147</ele>
        <time>2018-07-16T16:01:32Z</time>
      </trkpt>
      <trkpt lat="43.167733" lon="-4.849782">
        <ele>2218.845</ele>
        <time>2018-07-16T16:06:01Z</time>
      </trkpt>
      <trkpt lat="43.167873" lon="-4.850472">
        <ele>2200.677</ele>
        <time>2018-07-16T16:11:22Z</time>
      </trkpt>
      <trkpt lat="43.168332" lon="-4.851247">
        <ele>2178.861</ele>
        <time>2018-07-16T16:13:29Z</time>
      </trkpt>
      <trkpt lat="43.168636" lon="-4.852279">
        <ele>2165.427</ele>
        <time>2018-07-16T16:15:55Z</time>
      </trkpt>
      <trkpt lat="43.168413" lon="-4.853882">
        <ele>2163.808</ele>
        <time>2018-07-16T16:19:01Z</time>
      </trkpt>
      <trkpt lat="43.167874" lon="-4.854966">
        <ele>2139.249</ele>
        <time>2018-07-16T16:24:27Z</time>
      </trkpt>
      <trkpt lat="43.168082" lon="-4.856145">
        <ele>2124.263</ele>
        <time>2018-07-16T16:28:03Z</time>
      </trkpt>
      <trkpt lat="43.167995" lon="-4.856921">
        <ele>2135.763</ele>
        <time>2018-07-16T16:31:07Z</time>
      </trkpt>
      <trkpt lat="43.167790" lon="-4.857652">
        <ele>2137.544</ele>
        <time>2018-07-16T16:33:50Z</time>
      </trkpt>
      <trkpt lat="43.167527" lon="-4.857838">
        <ele>2143.653</ele>
        <time>2018-07-16T16:35:38Z</time>
      </trkpt>
      <trkpt lat="43.167379" lon="-4.858412">
        <ele>2150.010</ele>
        <time>2018-07-16T16:39:09Z</time>
      </trkpt>
      <trkpt lat="43.167069" lon="-4.858721">
        <ele>2154.759</ele>
        <time>2018-07-16T16:40:32Z</time>
      </trkpt>
      <trkpt lat="43.166852" lon="-4.859551">
        <ele>2172.187</ele>
        <time>2018-07-16T16:48:40Z</time>
      </trkpt>
      <trkpt lat="43.167166" lon="-4.860449">
        <ele>2167.016</ele>
        <time>2018-07-16T16:50:22Z</time>
      </trkpt>
      <trkpt lat="43.167161" lon="-4.861435">
        <ele>2172.776</ele>
        <time>2018-07-16T16:52:19Z</time>
      </trkpt>
      <trkpt lat="43.167581" lon="-4.862040">
        <ele>2176.713</ele>
        <time>2018-07-16T16:53:41Z</time>
      </trkpt>
      <trkpt lat="43.168031" lon="-4.862067">
        <ele>2169.608</ele>
        <time>2018-07-16T16:55:14Z</time>
      </trkpt>
      <trkpt lat="43.168319" lon="-4.862318">
        <ele>2166.033</ele>
        <time>2018-07-16T16:56:23Z</time>
      </trkpt>
      <trkpt lat="43.168689" lon="-4.863655">
        <ele>2163.347</ele>
        <time>2018-07-16T17:01:28Z</time>
      </trkpt>
      <trkpt lat="43.169104" lon="-4.864049">
        <ele>2160.417</ele>
        <time>2018-07-16T17:02:54Z</time>
      </trkpt>
      <trkpt lat="43.169663" lon="-4.864123">
        <ele>2156.788</ele>
        <time>2018-07-16T17:04:13Z</time>
      </trkpt>
      <trkpt lat="43.169819" lon="-4.863889">
        <ele>2153.967</ele>
        <time>2018-07-16T17:04:46Z</time>
      </trkpt>
      <trkpt lat="43.170360" lon="-4.863657">
        <ele>2149.514</ele>
        <time>2018-07-16T17:06:22Z</time>
      </trkpt>
      <trkpt lat="43.171052" lon="-4.864343">
        <ele>2123.693</ele>
        <time>2018-07-16T17:09:25Z</time>
      </trkpt>
      <trkpt lat="43.171472" lon="-4.864174">
        <ele>2110.651</ele>
        <time>2018-07-16T17:10:25Z</time>
      </trkpt>
      <trkpt lat="43.171701" lon="-4.864597">
        <ele>2104.773</ele>
        <time>2018-07-16T17:11:55Z</time>
      </trkpt>
      <trkpt lat="43.171674" lon="-4.864478">
        <ele>2101.185</ele>
        <time>2018-07-16T17:12:07Z</time>
      </trkpt>
      <trkpt lat="43.173774" lon="-4.866458">
        <ele>2041.313</ele>
        <time>2018-07-16T17:21:03Z</time>
      </trkpt>
      <trkpt lat="43.174055" lon="-4.867445">
        <ele>2033.408</ele>
        <time>2018-07-16T17:22:54Z</time>
      </trkpt>
      <trkpt lat="43.173889" lon="-4.867826">
        <ele>2035.149</ele>
        <time>2018-07-16T17:23:39Z</time>
      </trkpt>
      <trkpt lat="43.173949" lon="-4.869071">
        <ele>2060.013</ele>
        <time>2018-07-16T17:26:07Z</time>
      </trkpt>
      <trkpt lat="43.173727" lon="-4.869307">
        <ele>2064.173</ele>
        <time>2018-07-16T17:26:47Z</time>
      </trkpt>
      <trkpt lat="43.173348" lon="-4.869415">
        <ele>2063.674</ele>
        <time>2018-07-16T17:27:36Z</time>
      </trkpt>
      <trkpt lat="43.173054" lon="-4.869102">
        <ele>2063.283</ele>
        <time>2018-07-16T17:28:34Z</time>
      </trkpt>
      <trkpt lat="43.172864" lon="-4.869092">
        <ele>2063.150</ele>
        <time>2018-07-16T17:28:57Z</time>
      </trkpt>
    </trkseg>
  </trk>
</gpx>
